Time;durP1;ratioP1;P1;durP2;ratioP2;P2;SDS_P1;SDS_P2;PMS_P1;PMS_P2;Temp;Humidity;BMP_temperature;BMP_pressure;BME280_temperature;BME280_humidity;BME280_pressure;Samples;Min_cycle;Max_cycle;Signal;HPM_P1;HPM_P2
2023/03/01 00:02:24;;;;;;;;;;;;;;;;;;5066738;28;19924;-55
2023/03/01 00:04:53;;;;;;;;;;;;;;;;;;5067757;28;20346;-55
2023/03/01 00:07:26;;;;;;;;;;;;;;;;;;5068089;28;20362;-56
2023/03/01 00:09:56;;;;;;;;;;;;;;;;;;5067632;28;19928;-56
2023/03/01 00:12:22;;;;;;;;;;;;;;;;;;5067255;28;20385;-56
2023/03/01 00:14:48;;;;;;;;;;;;;;;;;;5068074;28;19928;-57
2023/03/01 00:17:17;;;;;;;;;;;;;;;;;;5066238;28;19931;-57
2023/03/01 00:19:48;;;;;;;;;;;;;;;;;;5066673;28;20020;-57
2023/03/01 00:22:17;;;;;;;;;;;;;;;;;;5068265;28;19925;-54
2023/03/01 00:24:43;;;;;;;;;;;;;;;;;;5070412;28;19930;-57
2023/03/01 00:27:09;;;;;;;;;;;;;;;;;;5073907;28;19925;-56
2023/03/01 00:29:39;;;;;;;;;;;;;;;;;;5073743;28;20011;-57
2023/03/01 00:32:08;;;;;;;;;;;;;;;;;;5073355;28;20011;-56
2023/03/01 00:34:34;;;;;;;;;;;;;;;;;;5074014;28;20007;-55
2023/03/01 00:37:05;;;;;;;;;;;;;;;;;;5074207;28;20542;-56
2023/03/01 00:39:34;;;;;;;;;;;;;;;;;;5073473;28;19924;-56
2023/03/01 00:42:06;;;;;;;;;;;;;;;;;;5073574;28;20366;-57
2023/03/01 00:44:35;;;;;;;;;;;;;;;;;;5073643;28;20568;-57
2023/03/01 00:47:01;;;;;;;;;;;;;;;;;;5072905;28;20015;-57
2023/03/01 00:49:27;;;;;;;;;;;;;;;;;;5073596;28;20007;-56
2023/03/01 00:51:56;;;;;;;;;;;;;;;;;;5073654;28;19931;-55
2023/03/01 00:54:26;;;;;;;;;;;;;;;;;;5073721;28;20369;-56
2023/03/01 00:56:52;;;;;;;;;;;;;;;;;;5055616;28;19924;-51
2023/03/01 00:59:21;;;;;;;;;;;;;;;;;;5073924;28;19978;-57
2023/03/01 01:01:54;;;;;;;;;;;;;;;;;;5073247;28;19924;-57
2023/03/01 01:04:27;;;;;;;;;;;;;;;;;;5073879;28;20011;-57
2023/03/01 01:06:56;;;;;;;;;;;;;;;;;;5073888;28;20022;-56
2023/03/01 01:09:26;;;;;;;;;;;;;;;;;;5072939;28;20024;-54
2023/03/01 01:11:55;;;;;;;;;;;;;;;;;;5073540;28;19932;-55
2023/03/01 01:14:24;;;;;;;;;;;;;;;;;;5074424;28;19931;-57
2023/03/01 01:16:57;;;;;;;;;;;;;;;;;;5073273;28;20011;-57
2023/03/01 01:19:30;;;;;;;;;;;;;;;;;;5072416;28;19924;-57
2023/03/01 01:22:03;;;;;;;;;;;;;;;;;;5073761;28;20370;-57
2023/03/01 01:24:35;;;;;;;;;;;;;;;;;;5073637;28;20546;-57
2023/03/01 01:27:07;;;;;;;;;;;;;;;;;;5073389;28;19932;-53
2023/03/01 01:29:33;;;;;;;;;;;;;;;;;;5055671;28;19924;-57
2023/03/01 01:32:02;;;;;;;;;;;;;;;;;;5072762;28;19924;-56
2023/03/01 01:34:35;;;;;;;;;;;;;;;;;;5073727;28;19925;-52
2023/03/01 01:37:07;;;;;;;;;;;;;;;;;;5069703;28;19925;-57
2023/03/01 01:39:33;;;;;;;;;;;;;;;;;;5069576;28;20382;-57
2023/03/01 01:41:59;;;;;;;;;;;;;;;;;;5070050;28;20038;-57
2023/03/01 01:44:28;;;;;;;;;;;;;;;;;;5070171;28;19940;-57
2023/03/01 01:47:01;;;;;;;;;;;;;;;;;;5069127;28;19951;-56
2023/03/01 01:49:34;;;;;;;;;;;;;;;;;;5070378;28;19925;-57
2023/03/01 01:52:06;;;;;;;;;;;;;;;;;;5070664;28;19929;-57
2023/03/01 01:54:36;;;;;;;;;;;;;;;;;;5058812;28;19932;-55
2023/03/01 01:57:02;;;;;;;;;;;;;;;;;;5035655;28;19925;-57
2023/03/01 01:59:28;;;;;;;;;;;;;;;;;;5051941;28;19925;-56
2023/03/01 02:01:57;;;;;;;;;;;;;;;;;;5068732;28;19987;-54
2023/03/01 02:04:27;;;;;;;;;;;;;;;;;;5069543;28;19925;-57
2023/03/01 02:06:53;;;;;;;;;;;;;;;;;;5069497;28;20003;-57
2023/03/01 02:09:22;;;;;;;;;;;;;;;;;;5066930;28;20646;-56
2023/03/01 02:11:52;;;;;;;;;;;;;;;;;;5045232;28;19929;-55
2023/03/01 02:14:18;;;;;;;;;;;;;;;;;;5032037;28;19937;-50
2023/03/01 02:16:44;;;;;;;;;;;;;;;;;;5031909;28;19976;-57
2023/03/01 02:19:10;;;;;;;;;;;;;;;;;;5030745;28;19956;-56
2023/03/01 02:21:39;;;;;;;;;;;;;;;;;;5013757;28;19939;-58
2023/03/01 02:24:08;;;;;;;;;;;;;;;;;;5038002;28;19936;-57
2023/03/01 02:26:35;;;;;;;;;;;;;;;;;;5031072;28;19925;-56
2023/03/01 02:29:00;;;;;;;;;;;;;;;;;;5047130;28;19928;-55
2023/03/01 02:31:43;;;;;;;;;;;;;;;;;;5046024;28;19931;-56
2023/03/01 02:34:16;;;;;;;;;;;;;;;;;;5049098;28;20333;-57
2023/03/01 02:36:49;;;;;;;;;;;;;;;;;;5033090;28;19971;-56
2023/03/01 02:39:21;;;;;;;;;;;;;;;;;;5045602;28;20045;-57
2023/03/01 02:41:55;;;;;;;;;;;;;;;;;;5037930;28;20008;-55
2023/03/01 02:44:27;;;;;;;;;;;;;;;;;;5031590;28;19925;-57
2023/03/01 02:47:00;;;;;;;;;;;;;;;;;;5044088;28;19937;-57
2023/03/01 02:49:34;;;;;;;;;;;;;;;;;;5031163;28;19936;-56
2023/03/01 02:52:06;;;;;;;;;;;;;;;;;;5031928;28;20313;-57
2023/03/01 02:54:35;;;;;;;;;;;;;;;;;;5034178;28;19925;-52
2023/03/01 02:57:01;;;;;;;;;;;;;;;;;;5047241;28;19931;-56
2023/03/01 02:59:27;;;;;;;;;;;;;;;;;;5047637;28;19925;-50
2023/03/01 03:01:53;;;;;;;;;;;;;;;;;;5047629;28;19924;-56
2023/03/01 03:04:20;;;;;;;;;;;;;;;;;;5048844;28;20423;-53
2023/03/01 03:06:46;;;;;;;;;;;;;;;;;;5054477;28;19981;-51
2023/03/01 03:09:12;;;;;;;;;;;;;;;;;;5058852;28;20332;-57
2023/03/01 03:11:40;;;;;;;;;;;;;;;;;;5068042;28;20003;-52
2023/03/01 03:14:12;;;;;;;;;;;;;;;;;;5068479;28;19921;-56
2023/03/01 03:16:38;;;;;;;;;;;;;;;;;;5066070;28;19967;-57
2023/03/01 03:19:04;;;;;;;;;;;;;;;;;;5067910;28;19971;-56
2023/03/01 03:21:30;;;;;;;;;;;;;;;;;;5068107;28;19978;-57
2023/03/01 03:23:57;;;;;;;;;;;;;;;;;;5068263;28;19940;-57
2023/03/01 03:26:23;;;;;;;;;;;;;;;;;;5067211;28;19932;-56
2023/03/01 03:28:49;;;;;;;;;;;;;;;;;;5068485;28;19929;-57
2023/03/01 03:31:15;;;;;;;;;;;;;;;;;;5067087;28;19920;-55
2023/03/01 03:33:41;;;;;;;;;;;;;;;;;;5067579;28;20370;-57
2023/03/01 03:36:12;;;;;;;;;;;;;;;;;;5061105;28;20036;-57
2023/03/01 03:38:38;;;;;;;;;;;;;;;;;;5065043;28;19924;-57
2023/03/01 03:41:04;;;;;;;;;;;;;;;;;;5047620;28;19950;-56
2023/03/01 03:43:30;;;;;;;;;;;;;;;;;;5065073;28;19948;-56
2023/03/01 03:45:56;;;;;;;;;;;;;;;;;;5064530;28;19928;-55
2023/03/01 03:48:22;;;;;;;;;;;;;;;;;;5047307;28;20010;-57
2023/03/01 03:50:49;;;;;;;;;;;;;;;;;;5066004;28;20016;-57
2023/03/01 03:53:15;;;;;;;;;;;;;;;;;;5065250;28;19928;-51
2023/03/01 03:55:41;;;;;;;;;;;;;;;;;;5064655;28;19982;-56
2023/03/01 03:58:07;;;;;;;;;;;;;;;;;;5065387;28;20285;-53
2023/03/01 04:00:33;;;;;;;;;;;;;;;;;;5063815;28;19929;-56
2023/03/01 04:02:59;;;;;;;;;;;;;;;;;;5064471;28;20459;-55
2023/03/01 04:05:25;;;;;;;;;;;;;;;;;;5065338;28;19928;-55
2023/03/01 04:08:00;;;;;;;;;;;;;;;;;;5065291;28;19982;-55
2023/03/01 04:10:26;;;;;;;;;;;;;;;;;;5064845;28;20550;-57
2023/03/01 04:12:52;;;;;;;;;;;;;;;;;;5064864;28;19939;-56
2023/03/01 04:15:18;;;;;;;;;;;;;;;;;;5065282;28;19928;-50
2023/03/01 04:17:44;;;;;;;;;;;;;;;;;;5064273;28;19924;-58
2023/03/01 04:20:10;;;;;;;;;;;;;;;;;;5065211;28;19933;-51
2023/03/01 04:22:36;;;;;;;;;;;;;;;;;;5064611;28;19963;-56
2023/03/01 04:25:04;;;;;;;;;;;;;;;;;;5065389;28;19967;-56
2023/03/01 04:27:30;;;;;;;;;;;;;;;;;;5064758;28;19928;-56
2023/03/01 04:29:56;;;;;;;;;;;;;;;;;;5065005;28;19928;-56
2023/03/01 04:32:22;;;;;;;;;;;;;;;;;;5064143;28;20289;-55
2023/03/01 04:34:48;;;;;;;;;;;;;;;;;;5065152;28;19928;-58
2023/03/01 04:37:15;;;;;;;;;;;;;;;;;;5060884;28;19936;-53
2023/03/01 04:39:45;;;;;;;;;;;;;;;;;;5054740;28;19928;-55
2023/03/01 04:42:11;;;;;;;;;;;;;;;;;;5064801;28;19997;-53
2023/03/01 04:44:37;;;;;;;;;;;;;;;;;;5064934;28;20425;-57
2023/03/01 04:47:03;;;;;;;;;;;;;;;;;;5063771;28;19928;-55
2023/03/01 04:49:29;;;;;;;;;;;;;;;;;;5064177;28;19932;-51
2023/03/01 04:51:58;;;;;;;;;;;;;;;;;;5064940;28;19932;-56
2023/03/01 04:54:24;;;;;;;;;;;;;;;;;;5064618;28;20366;-56
2023/03/01 04:56:50;;;;;;;;;;;;;;;;;;5065085;28;20420;-57
2023/03/01 04:59:16;;;;;;;;;;;;;;;;;;5064504;28;19935;-55
2023/03/01 05:01:42;;;;;;;;;;;;;;;;;;5064135;28;19950;-54
2023/03/01 05:04:13;;;;;;;;;;;;;;;;;;5063893;28;20401;-52
2023/03/01 05:06:39;;;;;;;;;;;;;;;;;;5064407;28;19924;-51
2023/03/01 05:09:05;;;;;;;;;;;;;;;;;;5064920;28;19958;-56
2023/03/01 05:11:35;;;;;;;;;;;;;;;;;;5066485;28;20787;-56
2023/03/01 05:14:01;;;;;;;;;;;;;;;;;;5068553;28;20370;-55
2023/03/01 05:16:27;;;;;;;;;;;;;;;;;;5066764;28;19928;-56
2023/03/01 05:18:55;;;;;;;;;;;;;;;;;;5067616;28;20007;-55
2023/03/01 05:21:21;;;;;;;;;;;;;;;;;;5068364;28;20467;-56
2023/03/01 05:23:47;;;;;;;;;;;;;;;;;;5050212;28;19928;-57
2023/03/01 05:26:13;;;;;;;;;;;;;;;;;;5068099;28;19920;-56
2023/03/01 05:28:39;;;;;;;;;;;;;;;;;;5067960;28;20782;-57
2023/03/01 05:31:09;;;;;;;;;;;;;;;;;;5066611;28;19935;-56
2023/03/01 05:33:35;;;;;;;;;;;;;;;;;;5067785;28;19928;-57
2023/03/01 05:36:01;;;;;;;;;;;;;;;;;;5050018;28;19931;-56
2023/03/01 05:38:27;;;;;;;;;;;;;;;;;;5036405;28;20420;-56
2023/03/01 05:40:53;;;;;;;;;;;;;;;;;;5067733;28;19932;-50
2023/03/01 05:43:19;;;;;;;;;;;;;;;;;;5068186;28;19935;-57
2023/03/01 05:45:45;;;;;;;;;;;;;;;;;;5066497;28;19925;-53
2023/03/01 05:48:12;;;;;;;;;;;;;;;;;;5067499;28;19939;-57
2023/03/01 05:50:38;;;;;;;;;;;;;;;;;;5067414;28;19928;-57
2023/03/01 05:53:05;;;;;;;;;;;;;;;;;;5066879;28;19935;-57
2023/03/01 05:55:31;;;;;;;;;;;;;;;;;;5067364;28;19928;-54
2023/03/01 05:57:57;;;;;;;;;;;;;;;;;;5067922;28;19928;-54
2023/03/01 06:00:23;;;;;;;;;;;;;;;;;;5066872;28;20293;-55
2023/03/01 06:02:51;;;;;;;;;;;;;;;;;;5067232;28;19975;-57
2023/03/01 06:05:17;;;;;;;;;;;;;;;;;;5067720;28;20006;-56
2023/03/01 06:07:43;;;;;;;;;;;;;;;;;;5066503;28;20590;-57
2023/03/01 06:10:10;;;;;;;;;;;;;;;;;;5058190;28;19925;-57
2023/03/01 06:12:36;;;;;;;;;;;;;;;;;;5046554;28;20314;-57
2023/03/01 06:15:02;;;;;;;;;;;;;;;;;;5047142;28;19939;-51
2023/03/01 06:17:28;;;;;;;;;;;;;;;;;;5052167;28;19928;-56
2023/03/01 06:19:54;;;;;;;;;;;;;;;;;;5048097;28;20301;-56
2023/03/01 06:22:20;;;;;;;;;;;;;;;;;;5028989;28;19936;-56
2023/03/01 06:24:46;;;;;;;;;;;;;;;;;;5046692;28;19990;-56
2023/03/01 06:27:12;;;;;;;;;;;;;;;;;;5046935;28;20309;-54
2023/03/01 06:29:38;;;;;;;;;;;;;;;;;;5045413;28;19924;-56
2023/03/01 06:32:04;;;;;;;;;;;;;;;;;;5044288;28;19925;-56
2023/03/01 06:34:30;;;;;;;;;;;;;;;;;;5046268;28;19948;-57
2023/03/01 06:36:56;;;;;;;;;;;;;;;;;;5045389;28;20438;-56
2023/03/01 06:39:22;;;;;;;;;;;;;;;;;;5033649;28;19928;-51
2023/03/01 06:41:48;;;;;;;;;;;;;;;;;;5047174;28;19929;-50
2023/03/01 06:44:14;;;;;;;;;;;;;;;;;;5046375;28;19933;-56
2023/03/01 06:46:40;;;;;;;;;;;;;;;;;;5045598;28;19968;-56
2023/03/01 06:49:09;;;;;;;;;;;;;;;;;;5028844;28;19975;-56
2023/03/01 06:51:35;;;;;;;;;;;;;;;;;;5046359;28;19932;-54
2023/03/01 06:54:01;;;;;;;;;;;;;;;;;;5046506;28;19925;-55
2023/03/01 06:56:27;;;;;;;;;;;;;;;;;;5046110;28;19998;-54
2023/03/01 06:58:53;;;;;;;;;;;;;;;;;;5045934;28;19947;-59
2023/03/01 07:01:19;;;;;;;;;;;;;;;;;;5046216;28;20345;-58
2023/03/01 07:03:46;;;;;;;;;;;;;;;;;;5046258;28;20381;-59
2023/03/01 07:06:12;;;;;;;;;;;;;;;;;;5046346;28;20375;-56
2023/03/01 07:08:38;;;;;;;;;;;;;;;;;;5051637;28;19925;-58
2023/03/01 07:11:04;;;;;;;;;;;;;;;;;;5065512;28;19932;-53
2023/03/01 07:13:30;;;;;;;;;;;;;;;;;;5059890;28;19933;-57
2023/03/01 07:15:56;;;;;;;;;;;;;;;;;;5065397;28;19950;-56
2023/03/01 07:18:22;;;;;;;;;;;;;;;;;;5061099;28;19955;-55
2023/03/01 07:20:48;;;;;;;;;;;;;;;;;;5067381;28;20378;-57
2023/03/01 07:23:14;;;;;;;;;;;;;;;;;;5068066;28;19935;-58
2023/03/01 07:25:40;;;;;;;;;;;;;;;;;;5067528;28;19928;-57
2023/03/01 07:28:06;;;;;;;;;;;;;;;;;;5067521;28;20392;-57
2023/03/01 07:30:32;;;;;;;;;;;;;;;;;;5066808;28;19929;-53
2023/03/01 07:32:58;;;;;;;;;;;;;;;;;;5067292;28;19950;-57
2023/03/01 07:35:24;;;;;;;;;;;;;;;;;;5066481;28;20003;-55
2023/03/01 07:37:50;;;;;;;;;;;;;;;;;;5068094;28;20263;-59
2023/03/01 07:40:16;;;;;;;;;;;;;;;;;;5046267;28;20398;-56
2023/03/01 07:42:42;;;;;;;;;;;;;;;;;;5029499;28;20046;-57
2023/03/01 07:45:08;;;;;;;;;;;;;;;;;;5049740;28;19924;-56
2023/03/01 07:47:34;;;;;;;;;;;;;;;;;;5059776;28;20028;-58
2023/03/01 07:50:01;;;;;;;;;;;;;;;;;;5058922;28;20419;-57
2023/03/01 07:52:27;;;;;;;;;;;;;;;;;;5067227;28;19932;-56
2023/03/01 07:54:52;;;;;;;;;;;;;;;;;;5067324;28;19944;-56
2023/03/01 07:57:19;;;;;;;;;;;;;;;;;;5067511;28;19925;-57
2023/03/01 07:59:44;;;;;;;;;;;;;;;;;;5067168;28;20683;-57
2023/03/01 08:02:11;;;;;;;;;;;;;;;;;;5066794;28;19990;-56
2023/03/01 08:04:37;;;;;;;;;;;;;;;;;;5067258;28;20393;-57
2023/03/01 08:07:03;;;;;;;;;;;;;;;;;;5049555;28;19961;-57
2023/03/01 08:09:29;;;;;;;;;;;;;;;;;;5066895;28;19925;-55
2023/03/01 08:11:55;;;;;;;;;;;;;;;;;;5066782;28;19924;-57
2023/03/01 08:14:21;;;;;;;;;;;;;;;;;;5067615;28;19930;-57
2023/03/01 08:16:47;;;;;;;;;;;;;;;;;;5066834;28;20347;-58
2023/03/01 08:19:13;;;;;;;;;;;;;;;;;;5067038;28;20401;-53
2023/03/01 08:21:39;;;;;;;;;;;;;;;;;;5067062;28;19925;-57
2023/03/01 08:24:05;;;;;;;;;;;;;;;;;;5067204;28;19924;-54
2023/03/01 08:26:31;;;;;;;;;;;;;;;;;;5066402;28;19924;-57
2023/03/01 08:28:57;;;;;;;;;;;;;;;;;;5067191;28;20388;-56
2023/03/01 08:31:23;;;;;;;;;;;;;;;;;;5065953;28;19928;-57
2023/03/01 08:33:54;;;;;;;;;;;;;;;;;;5067804;28;20023;-57
2023/03/01 08:36:20;;;;;;;;;;;;;;;;;;5067118;28;19920;-57
2023/03/01 08:38:46;;;;;;;;;;;;;;;;;;5052710;28;19924;-57
2023/03/01 08:41:12;;;;;;;;;;;;;;;;;;5067270;28;19928;-57
2023/03/01 08:43:38;;;;;;;;;;;;;;;;;;5066266;28;19977;-58
2023/03/01 08:46:04;;;;;;;;;;;;;;;;;;5068072;28;19925;-55
2023/03/01 08:48:30;;;;;;;;;;;;;;;;;;5070727;28;19931;-57
2023/03/01 08:50:56;;;;;;;;;;;;;;;;;;5070676;28;19925;-57
2023/03/01 08:53:22;;;;;;;;;;;;;;;;;;5070016;28;19924;-57
2023/03/01 08:55:48;;;;;;;;;;;;;;;;;;5070898;28;19947;-52
2023/03/01 08:58:14;;;;;;;;;;;;;;;;;;5070856;28;20719;-56
2023/03/01 09:00:40;;;;;;;;;;;;;;;;;;5068933;28;19928;-55
2023/03/01 09:03:06;;;;;;;;;;;;;;;;;;5070874;28;20384;-58
2023/03/01 09:05:32;;;;;;;;;;;;;;;;;;5070286;28;20003;-57
2023/03/01 09:07:58;;;;;;;;;;;;;;;;;;5069572;28;19924;-57
2023/03/01 09:10:25;;;;;;;;;;;;;;;;;;5070280;28;19994;-55
2023/03/01 09:12:50;;;;;;;;;;;;;;;;;;5070739;28;20589;-57
2023/03/01 09:15:16;;;;;;;;;;;;;;;;;;5051843;28;19974;-57
2023/03/01 09:17:43;;;;;;;;;;;;;;;;;;5069712;28;19928;-58
2023/03/01 09:20:09;;;;;;;;;;;;;;;;;;5070094;28;19928;-57
2023/03/01 09:22:35;;;;;;;;;;;;;;;;;;5069196;28;19977;-57
2023/03/01 09:25:01;;;;;;;;;;;;;;;;;;5069767;28;20323;-56
2023/03/01 09:27:27;;;;;;;;;;;;;;;;;;5069620;28;19925;-57
2023/03/01 09:29:56;;;;;;;;;;;;;;;;;;5069142;28;19948;-58
2023/03/01 09:32:22;;;;;;;;;;;;;;;;;;5069684;28;19978;-53
2023/03/01 09:37:32;;;;;;;;;;;;;;;;;;5063538;28;19938;-56
2023/03/01 09:39:58;;;;;;;;;;;;;;;;;;5061817;28;19924;-57
2023/03/01 09:42:24;;;;;;;;;;;;;;;;;;5069560;28;20484;-56
2023/03/01 09:44:50;;;;;;;;;;;;;;;;;;5069268;28;20293;-57
2023/03/01 09:47:16;;;;;;;;;;;;;;;;;;5068913;28;19924;-57
2023/03/01 09:49:42;;;;;;;;;;;;;;;;;;5069321;28;19936;-53
2023/03/01 09:52:08;;;;;;;;;;;;;;;;;;5069482;28;20418;-58
2023/03/01 09:54:34;;;;;;;;;;;;;;;;;;5068940;28;19924;-57
2023/03/01 09:57:00;;;;;;;;;;;;;;;;;;5068694;28;19925;-58
2023/03/01 09:59:26;;;;;;;;;;;;;;;;;;5069255;28;19947;-57
2023/03/01 10:01:53;;;;;;;;;;;;;;;;;;5068152;28;20385;-58
2023/03/01 10:04:19;;;;;;;;;;;;;;;;;;5069490;28;20431;-57
2023/03/01 10:06:45;;;;;;;;;;;;;;;;;;5069253;28;19928;-56
2023/03/01 10:09:11;;;;;;;;;;;;;;;;;;5068874;28;19928;-57
2023/03/01 10:11:37;;;;;;;;;;;;;;;;;;5069241;28;19931;-56
2023/03/01 10:14:03;;;;;;;;;;;;;;;;;;5069268;28;19924;-56
2023/03/01 10:16:29;;;;;;;;;;;;;;;;;;5067731;28;19924;-56
2023/03/01 10:18:55;;;;;;;;;;;;;;;;;;5068932;28;19924;-56
2023/03/01 10:21:21;;;;;;;;;;;;;;;;;;5069473;28;20611;-57
2023/03/01 10:23:47;;;;;;;;;;;;;;;;;;5069473;28;20015;-56
2023/03/01 10:26:13;;;;;;;;;;;;;;;;;;5068756;28;19924;-57
2023/03/01 10:28:39;;;;;;;;;;;;;;;;;;5068606;28;19954;-55
2023/03/01 10:31:05;;;;;;;;;;;;;;;;;;5067565;28;19928;-57
2023/03/01 10:33:31;;;;;;;;;;;;;;;;;;5068220;28;19958;-51
2023/03/01 10:35:57;;;;;;;;;;;;;;;;;;5068581;28;20278;-57
2023/03/01 10:38:23;;;;;;;;;;;;;;;;;;5055065;28;19921;-55
2023/03/01 10:40:49;;;;;;;;;;;;;;;;;;5068127;28;19932;-58
2023/03/01 10:43:15;;;;;;;;;;;;;;;;;;5050964;28;19924;-56
2023/03/01 10:45:42;;;;;;;;;;;;;;;;;;5067055;28;20306;-57
2023/03/01 10:48:08;;;;;;;;;;;;;;;;;;5068777;28;19932;-58
2023/03/01 10:50:34;;;;;;;;;;;;;;;;;;5068026;28;19924;-57
2023/03/01 10:53:00;;;;;;;;;;;;;;;;;;5068349;28;19935;-57
2023/03/01 10:55:26;;;;;;;;;;;;;;;;;;5068111;28;19924;-57
2023/03/01 10:57:54;;;;;;;;;;;;;;;;;;5068301;28;20275;-56
2023/03/01 11:00:20;;;;;;;;;;;;;;;;;;5067362;28;20427;-52
2023/03/01 11:02:47;;;;;;;;;;;;;;;;;;5068573;28;19931;-57
2023/03/01 11:05:13;;;;;;;;;;;;;;;;;;5067983;28;19924;-56
2023/03/01 11:07:39;;;;;;;;;;;;;;;;;;5068160;28;19924;-57
2023/03/01 11:10:05;;;;;;;;;;;;;;;;;;5067719;28;20332;-57
2023/03/01 11:12:32;;;;;;;;;;;;;;;;;;5068047;28;19977;-55
2023/03/01 11:14:58;;;;;;;;;;;;;;;;;;5066858;28;20320;-57
2023/03/01 11:17:25;;;;;;;;;;;;;;;;;;5067578;28;19931;-57
2023/03/01 11:19:51;;;;;;;;;;;;;;;;;;5068161;28;19963;-57
2023/03/01 11:22:17;;;;;;;;;;;;;;;;;;5068069;28;20433;-56
2023/03/01 11:24:43;;;;;;;;;;;;;;;;;;5067489;28;19924;-56
2023/03/01 11:27:09;;;;;;;;;;;;;;;;;;5067685;28;19925;-56
2023/03/01 11:29:35;;;;;;;;;;;;;;;;;;5066021;28;20452;-57
2023/03/01 11:32:01;;;;;;;;;;;;;;;;;;5067974;28;19928;-57
2023/03/01 11:34:27;;;;;;;;;;;;;;;;;;5067322;28;20290;-56
2023/03/01 11:36:54;;;;;;;;;;;;;;;;;;5067152;28;19924;-58
2023/03/01 11:39:20;;;;;;;;;;;;;;;;;;5054796;28;19929;-57
2023/03/01 11:41:46;;;;;;;;;;;;;;;;;;5067362;28;19932;-57
2023/03/01 11:44:12;;;;;;;;;;;;;;;;;;5066994;28;20301;-57
2023/03/01 11:46:38;;;;;;;;;;;;;;;;;;5066692;28;19924;-57
2023/03/01 11:49:04;;;;;;;;;;;;;;;;;;5067266;28;20032;-56
2023/03/01 11:51:30;;;;;;;;;;;;;;;;;;5067347;28;20439;-57
2023/03/01 11:53:56;;;;;;;;;;;;;;;;;;5067437;28;19970;-56
2023/03/01 11:56:22;;;;;;;;;;;;;;;;;;5067057;28;19924;-57
2023/03/01 11:58:49;;;;;;;;;;;;;;;;;;5067793;28;20017;-56
2023/03/01 12:01:15;;;;;;;;;;;;;;;;;;5066489;28;19939;-57
2023/03/01 12:03:41;;;;;;;;;;;;;;;;;;5066841;28;19920;-56
2023/03/01 12:06:07;;;;;;;;;;;;;;;;;;5067047;28;19935;-57
2023/03/01 12:08:33;;;;;;;;;;;;;;;;;;5067034;28;20366;-57
2023/03/01 12:10:59;;;;;;;;;;;;;;;;;;5067060;28;19924;-57
2023/03/01 12:13:25;;;;;;;;;;;;;;;;;;5066805;28;19931;-57
2023/03/01 12:15:51;;;;;;;;;;;;;;;;;;5066756;28;19925;-56
2023/03/01 12:18:17;;;;;;;;;;;;;;;;;;5067268;28;20034;-57
2023/03/01 12:20:43;;;;;;;;;;;;;;;;;;5066194;28;19931;-57
2023/03/01 12:23:09;;;;;;;;;;;;;;;;;;5067019;28;19925;-57
2023/03/01 12:25:35;;;;;;;;;;;;;;;;;;5066347;28;19994;-56
2023/03/01 12:28:01;;;;;;;;;;;;;;;;;;5048035;28;19931;-58
2023/03/01 12:30:27;;;;;;;;;;;;;;;;;;5057901;28;19925;-55
2023/03/01 12:32:53;;;;;;;;;;;;;;;;;;5060624;28;20290;-57
2023/03/01 12:35:19;;;;;;;;;;;;;;;;;;5066870;28;19931;-56
2023/03/01 12:37:45;;;;;;;;;;;;;;;;;;5058958;28;19990;-54
2023/03/01 12:40:12;;;;;;;;;;;;;;;;;;5060580;28;20437;-56
2023/03/01 12:42:38;;;;;;;;;;;;;;;;;;5066332;28;20587;-57
2023/03/01 12:45:04;;;;;;;;;;;;;;;;;;5066164;28;19931;-57
2023/03/01 12:47:30;;;;;;;;;;;;;;;;;;5066570;28;19928;-57
2023/03/01 12:49:56;;;;;;;;;;;;;;;;;;5067003;28;19931;-52
2023/03/01 12:52:22;;;;;;;;;;;;;;;;;;5066509;28;19925;-55
2023/03/01 12:54:48;;;;;;;;;;;;;;;;;;5066925;28;19950;-55
2023/03/01 12:57:14;;;;;;;;;;;;;;;;;;5066396;28;19932;-57
2023/03/01 12:59:40;;;;;;;;;;;;;;;;;;5065608;28;19932;-57
2023/03/01 13:02:06;;;;;;;;;;;;;;;;;;5066364;28;19964;-57
2023/03/01 13:04:36;;;;;;;;;;;;;;;;;;5052952;28;19924;-57
2023/03/01 13:07:02;;;;;;;;;;;;;;;;;;5066526;28;20108;-53
2023/03/01 13:09:29;;;;;;;;;;;;;;;;;;5059413;28;20041;-55
2023/03/01 13:11:55;;;;;;;;;;;;;;;;;;5036599;28;19925;-57
2023/03/01 13:14:22;;;;;;;;;;;;;;;;;;5037403;28;19935;-57
2023/03/01 13:16:49;;;;;;;;;;;;;;;;;;5038104;28;19929;-57
2023/03/01 13:19:15;;;;;;;;;;;;;;;;;;5025215;28;19976;-56
2023/03/01 13:21:42;;;;;;;;;;;;;;;;;;5025942;28;20339;-57
2023/03/01 13:24:08;;;;;;;;;;;;;;;;;;5035395;28;19947;-53
2023/03/01 13:26:34;;;;;;;;;;;;;;;;;;5043713;28;19925;-58
2023/03/01 13:29:00;;;;;;;;;;;;;;;;;;5044766;28;20409;-55
2023/03/01 13:31:26;;;;;;;;;;;;;;;;;;5045316;28;19932;-57
2023/03/01 13:36:54;;;;;;;;;;;;;;;;;;5060177;28;19971;-57
2023/03/01 13:39:20;;;;;;;;;;;;;;;;;;5042664;28;19933;-57
2023/03/01 13:41:46;;;;;;;;;;;;;;;;;;5044894;28;20321;-56
2023/03/01 13:44:12;;;;;;;;;;;;;;;;;;5052650;28;19983;-57
2023/03/01 13:46:38;;;;;;;;;;;;;;;;;;5035351;28;19978;-54
2023/03/01 13:49:04;;;;;;;;;;;;;;;;;;5055866;28;19925;-57
2023/03/01 13:51:30;;;;;;;;;;;;;;;;;;5043344;28;19952;-55
2023/03/01 13:53:56;;;;;;;;;;;;;;;;;;5054247;28;20487;-57
2023/03/01 13:56:22;;;;;;;;;;;;;;;;;;5060943;28;19924;-55
2023/03/01 13:58:48;;;;;;;;;;;;;;;;;;5065143;28;19966;-58
2023/03/01 14:01:14;;;;;;;;;;;;;;;;;;5059362;28;19932;-58
2023/03/01 14:03:41;;;;;;;;;;;;;;;;;;5063827;28;19932;-57
2023/03/01 14:06:07;;;;;;;;;;;;;;;;;;5061534;28;19925;-57
2023/03/01 14:08:33;;;;;;;;;;;;;;;;;;5044769;28;19928;-55
2023/03/01 14:10:59;;;;;;;;;;;;;;;;;;5062864;28;19940;-57
2023/03/01 14:13:25;;;;;;;;;;;;;;;;;;5042978;28;19924;-57
2023/03/01 14:15:51;;;;;;;;;;;;;;;;;;5064345;28;19928;-57
2023/03/01 14:18:17;;;;;;;;;;;;;;;;;;5039446;28;19975;-56
2023/03/01 14:20:45;;;;;;;;;;;;;;;;;;5053648;28;20434;-57
2023/03/01 14:23:11;;;;;;;;;;;;;;;;;;5039157;28;19964;-57
2023/03/01 14:25:38;;;;;;;;;;;;;;;;;;5039817;28;19931;-57
2023/03/01 14:28:04;;;;;;;;;;;;;;;;;;5042100;28;19931;-57
2023/03/01 14:30:31;;;;;;;;;;;;;;;;;;5029328;28;19929;-57
2023/03/01 14:32:57;;;;;;;;;;;;;;;;;;5042284;28;20016;-57
2023/03/01 14:35:23;;;;;;;;;;;;;;;;;;5067190;28;19925;-57
2023/03/01 14:37:49;;;;;;;;;;;;;;;;;;5051632;28;20263;-56
2023/03/01 14:40:15;;;;;;;;;;;;;;;;;;5042462;28;20338;-57
2023/03/01 14:42:41;;;;;;;;;;;;;;;;;;5047740;28;19925;-52
2023/03/01 14:45:07;;;;;;;;;;;;;;;;;;5045758;28;20833;-57
2023/03/01 14:47:33;;;;;;;;;;;;;;;;;;5029621;28;19925;-55
2023/03/01 14:49:59;;;;;;;;;;;;;;;;;;5033969;28;19936;-57
2023/03/01 14:52:25;;;;;;;;;;;;;;;;;;5034032;28;19968;-54
2023/03/01 14:54:51;;;;;;;;;;;;;;;;;;5064934;28;19955;-56
2023/03/01 14:57:17;;;;;;;;;;;;;;;;;;5036363;28;20426;-55
2023/03/01 14:59:43;;;;;;;;;;;;;;;;;;5064024;28;19931;-57
2023/03/01 15:02:09;;;;;;;;;;;;;;;;;;5066490;28;19932;-57
2023/03/01 15:04:35;;;;;;;;;;;;;;;;;;5064116;28;20015;-57
2023/03/01 15:07:04;;;;;;;;;;;;;;;;;;5066327;28;20042;-56
2023/03/01 15:09:30;;;;;;;;;;;;;;;;;;5064081;28;19972;-56
2023/03/01 15:11:56;;;;;;;;;;;;;;;;;;5066584;28;20362;-57
2023/03/01 15:14:22;;;;;;;;;;;;;;;;;;5062709;28;20003;-55
2023/03/01 15:16:49;;;;;;;;;;;;;;;;;;5036348;28;19924;-56
2023/03/01 15:19:15;;;;;;;;;;;;;;;;;;5053751;28;19928;-56
2023/03/01 15:21:41;;;;;;;;;;;;;;;;;;5043114;28;20023;-57
2023/03/01 15:24:11;;;;;;;;;;;;;;;;;;5046857;28;20409;-57
2023/03/01 15:26:37;;;;;;;;;;;;;;;;;;5059330;28;19955;-55
2023/03/01 15:29:03;;;;;;;;;;;;;;;;;;5062471;28;19924;-57
2023/03/01 15:31:29;;;;;;;;;;;;;;;;;;5049783;28;19924;-55
2023/03/01 15:33:55;;;;;;;;;;;;;;;;;;5050314;28;19925;-53
2023/03/01 15:36:21;;;;;;;;;;;;;;;;;;5053131;28;19970;-56
2023/03/01 15:38:48;;;;;;;;;;;;;;;;;;5032366;28;19926;-51
2023/03/01 15:41:14;;;;;;;;;;;;;;;;;;5032854;28;19925;-56
2023/03/01 15:43:40;;;;;;;;;;;;;;;;;;5045424;28;20444;-55
2023/03/01 15:46:06;;;;;;;;;;;;;;;;;;5039259;28;20322;-54
2023/03/01 15:48:32;;;;;;;;;;;;;;;;;;5066211;28;19932;-57
2023/03/01 15:50:58;;;;;;;;;;;;;;;;;;5065553;28;19924;-54
2023/03/01 15:53:26;;;;;;;;;;;;;;;;;;5065694;28;21224;-56
2023/03/01 15:55:52;;;;;;;;;;;;;;;;;;5064878;28;19999;-54
2023/03/01 15:58:18;;;;;;;;;;;;;;;;;;5067421;28;20560;-56
2023/03/01 16:00:44;;;;;;;;;;;;;;;;;;5064199;28;19924;-56
2023/03/01 16:03:11;;;;;;;;;;;;;;;;;;5066063;28;19931;-57
2023/03/01 16:05:37;;;;;;;;;;;;;;;;;;5066023;28;20286;-55
2023/03/01 16:08:03;;;;;;;;;;;;;;;;;;5065510;28;19925;-56
2023/03/01 16:10:29;;;;;;;;;;;;;;;;;;5066512;28;20389;-57
2023/03/01 16:12:55;;;;;;;;;;;;;;;;;;5065725;28;20008;-57
2023/03/01 16:15:21;;;;;;;;;;;;;;;;;;5065973;28;20386;-57
2023/03/01 16:17:47;;;;;;;;;;;;;;;;;;5065667;28;19972;-53
2023/03/01 16:20:15;;;;;;;;;;;;;;;;;;5066128;28;20376;-57
2023/03/01 16:22:41;;;;;;;;;;;;;;;;;;5066189;28;19928;-56
2023/03/01 16:25:08;;;;;;;;;;;;;;;;;;5065485;28;20374;-57
2023/03/01 16:27:34;;;;;;;;;;;;;;;;;;5066080;28;19924;-56
2023/03/01 16:30:00;;;;;;;;;;;;;;;;;;5064433;28;19920;-56
2023/03/01 16:32:26;;;;;;;;;;;;;;;;;;5065641;28;20448;-56
2023/03/01 16:34:52;;;;;;;;;;;;;;;;;;5047314;28;19929;-53
2023/03/01 16:37:19;;;;;;;;;;;;;;;;;;5058314;28;20048;-56
2023/03/01 16:39:45;;;;;;;;;;;;;;;;;;5036870;28;19955;-56
2023/03/01 16:42:11;;;;;;;;;;;;;;;;;;5046131;28;19925;-56
2023/03/01 16:44:37;;;;;;;;;;;;;;;;;;5040092;28;19925;-56
2023/03/01 16:47:03;;;;;;;;;;;;;;;;;;5040843;28;19967;-55
2023/03/01 16:49:29;;;;;;;;;;;;;;;;;;5045209;28;19925;-54